sensor_id;sensor_type;location;lat;lon;timestamp;pressure;altitude;pressure_sealevel;temperature;humidity
80202;BME280;69521;54.454;9.928;2024-02-04T07:47:05;101109.63;;;5.48;85.93
80202;BME280;69521;54.454;9.928;2024-02-04T07:49:30;101118.59;;;5.47;86.41
80202;BME280;69521;54.454;9.928;2024-02-04T07:51:55;101105.78;;;5.52;86.34
80202;BME280;69521;54.454;9.928;2024-02-04T07:54:21;101112.19;;;5.50;86.34
80202;BME280;69521;54.454;9.928;2024-02-04T07:56:46;101118.28;;;5.52;86.02
80202;BME280;69521;54.454;9.928;2024-02-04T07:59:14;101122.47;;;5.56;86.10
80202;BME280;69521;54.454;9.928;2024-02-04T08:01:39;101107.59;;;5.52;86.22
80202;BME280;69521;54.454;9.928;2024-02-04T08:04:04;101106.44;;;5.56;85.66
80202;BME280;69521;54.454;9.928;2024-02-04T08:06:32;101109.41;;;5.51;86.46
80202;BME280;69521;54.454;9.928;2024-02-04T08:08:59;101111.78;;;5.56;86.47
80202;BME280;69521;54.454;9.928;2024-02-04T08:11:25;101114.66;;;5.53;86.62
80202;BME280;69521;54.454;9.928;2024-02-04T08:13:50;101111.69;;;5.57;85.60
80202;BME280;69521;54.454;9.928;2024-02-04T08:16:15;101103.56;;;5.59;85.73
80202;BME280;69521;54.454;9.928;2024-02-04T08:18:41;101100.16;;;5.57;86.10
80202;BME280;69521;54.454;9.928;2024-02-04T08:21:07;101107.31;;;5.56;86.50
80202;BME280;69521;54.454;9.928;2024-02-04T08:23:32;101109.38;;;6.05;84.17
80202;BME280;69521;54.454;9.928;2024-02-04T08:25:58;101100.41;;;5.79;84.87
80202;BME280;69521;54.454;9.928;2024-02-04T08:28:24;101082.03;;;5.74;84.36
80202;BME280;69521;54.454;9.928;2024-02-04T08:30:49;101084.63;;;5.76;84.22
80202;BME280;69521;54.454;9.928;2024-02-04T08:33:15;101101.78;;;5.72;85.26
80202;BME280;69521;54.454;9.928;2024-02-04T08:35:40;101068.53;;;5.90;86.63
80202;BME280;69521;54.454;9.928;2024-02-04T08:38:05;101068.78;;;6.51;83.63
80202;BME280;69521;54.454;9.928;2024-02-04T08:40:31;101082.66;;;6.68;83.39
80202;BME280;69521;54.454;9.928;2024-02-04T08:42:56;101081.63;;;6.20;82.84
80202;BME280;69521;54.454;9.928;2024-02-04T08:45:21;101084.34;;;5.93;84.86
80202;BME280;69521;54.454;9.928;2024-02-04T08:47:47;101061.03;;;5.83;85.79
80202;BME280;69521;54.454;9.928;2024-02-04T08:50:12;101065.72;;;5.79;85.13
80202;BME280;69521;54.454;9.928;2024-02-04T08:52:38;101061.03;;;5.83;85.10
80202;BME280;69521;54.454;9.928;2024-02-04T08:55:03;101063.59;;;5.84;84.25
80202;BME280;69521;54.454;9.928;2024-02-04T08:57:30;101063.09;;;5.92;84.11
80202;BME280;69521;54.454;9.928;2024-02-04T08:59:55;101055.38;;;5.87;84.48
80202;BME280;69521;54.454;9.928;2024-02-04T09:02:20;101061.03;;;5.83;85.06
80202;BME280;69521;54.454;9.928;2024-02-04T09:04:46;101059.97;;;5.85;84.75
80202;BME280;69521;54.454;9.928;2024-02-04T09:07:11;101044.50;;;5.90;84.98
80202;BME280;69521;54.454;9.928;2024-02-04T09:09:37;101064.22;;;5.88;83.95
80202;BME280;69521;54.454;9.928;2024-02-04T09:12:02;101074.06;;;5.87;84.51
80202;BME280;69521;54.454;9.928;2024-02-04T09:14:28;101049.06;;;5.88;84.53
80202;BME280;69521;54.454;9.928;2024-02-04T09:16:53;101046.41;;;5.88;84.52
80202;BME280;69521;54.454;9.928;2024-02-04T09:19:18;101054.22;;;5.91;83.97
80202;BME280;69521;54.454;9.928;2024-02-04T09:21:44;101065.66;;;5.93;84.08
80202;BME280;69521;54.454;9.928;2024-02-04T09:24:09;101062.78;;;5.96;83.94
80202;BME280;69521;54.454;9.928;2024-02-04T09:26:35;101039.72;;;5.95;83.72
80202;BME280;69521;54.454;9.928;2024-02-04T09:29:00;101055.09;;;6.04;83.31
80202;BME280;69521;54.454;9.928;2024-02-04T09:31:25;101057.47;;;6.09;83.58
80202;BME280;69521;54.454;9.928;2024-02-04T09:33:51;101048.03;;;6.03;83.23
80202;BME280;69521;54.454;9.928;2024-02-04T09:36:16;101053.38;;;6.03;83.72
80202;BME280;69521;54.454;9.928;2024-02-04T09:38:41;101054.25;;;6.04;82.42
80202;BME280;69521;54.454;9.928;2024-02-04T09:41:07;101053.28;;;6.05;83.16
80202;BME280;69521;54.454;9.928;2024-02-04T09:43:32;101052.44;;;6.04;84.12
80202;BME280;69521;54.454;9.928;2024-02-04T09:46:00;101056.91;;;6.04;83.45
80202;BME280;69521;54.454;9.928;2024-02-04T09:48:29;101064.06;;;6.03;83.13
80202;BME280;69521;54.454;9.928;2024-02-04T09:50:56;101050.22;;;6.11;83.16
80202;BME280;69521;54.454;9.928;2024-02-04T09:53:31;101065.50;;;6.09;83.58
80202;BME280;69521;54.454;9.928;2024-02-04T09:55:58;101055.44;;;6.13;82.82
80202;BME280;69521;54.454;9.928;2024-02-04T09:58:24;101066.25;;;6.24;82.78
80202;BME280;69521;54.454;9.928;2024-02-04T10:00:50;101064.63;;;6.21;82.93
80202;BME280;69521;54.454;9.928;2024-02-04T10:03:16;101074.25;;;6.24;83.20
80202;BME280;69521;54.454;9.928;2024-02-04T10:05:41;101058.22;;;6.24;82.68
80202;BME280;69521;54.454;9.928;2024-02-04T10:08:07;101061.66;;;6.26;82.50
80202;BME280;69521;54.454;9.928;2024-02-04T10:10:33;101064.31;;;6.26;82.73
80202;BME280;69521;54.454;9.928;2024-02-04T10:12:58;101060.03;;;6.23;82.22
80202;BME280;69521;54.454;9.928;2024-02-04T10:15:23;101059.94;;;6.25;82.50
80202;BME280;69521;54.454;9.928;2024-02-04T10:17:49;101061.97;;;6.34;82.62
80202;BME280;69521;54.454;9.928;2024-02-04T10:20:14;101049.13;;;6.39;82.19
80202;BME280;69521;54.454;9.928;2024-02-04T10:22:40;101048.59;;;6.47;81.69
80202;BME280;69521;54.454;9.928;2024-02-04T10:25:09;101049.22;;;6.50;82.29
80202;BME280;69521;54.454;9.928;2024-02-04T10:27:37;101046.34;;;6.53;81.91
80202;BME280;69521;54.454;9.928;2024-02-04T10:30:02;101045.25;;;6.56;82.17
80202;BME280;69521;54.454;9.928;2024-02-04T10:32:28;101043.25;;;6.47;81.81
80202;BME280;69521;54.454;9.928;2024-02-04T10:34:53;101041.22;;;6.50;81.83
80202;BME280;69521;54.454;9.928;2024-02-04T10:37:18;101021.75;;;6.48;81.25
80202;BME280;69521;54.454;9.928;2024-02-04T10:39:44;101027.63;;;6.53;82.17
80202;BME280;69521;54.454;9.928;2024-02-04T10:42:10;101030.94;;;6.57;81.48
80202;BME280;69521;54.454;9.928;2024-02-04T10:44:39;101027.06;;;6.61;81.56
80202;BME280;69521;54.454;9.928;2024-02-04T10:47:09;101026.00;;;6.63;80.98
80202;BME280;69521;54.454;9.928;2024-02-04T10:49:37;101035.72;;;6.64;81.91
80202;BME280;69521;54.454;9.928;2024-02-04T10:52:06;101030.72;;;6.60;81.60
80202;BME280;69521;54.454;9.928;2024-02-04T10:54:32;101029.63;;;6.62;81.45
80202;BME280;69521;54.454;9.928;2024-02-04T10:57:04;101040.13;;;6.53;81.83
80202;BME280;69521;54.454;9.928;2024-02-04T10:59:31;101029.13;;;6.57;81.71
80202;BME280;69521;54.454;9.928;2024-02-04T11:01:57;101035.63;;;6.53;81.81
80202;BME280;69521;54.454;9.928;2024-02-04T11:04:23;101028.28;;;6.44;82.41
80202;BME280;69521;54.454;9.928;2024-02-04T11:06:49;101026.13;;;6.49;81.81
80202;BME280;69521;54.454;9.928;2024-02-04T11:09:16;101034.91;;;6.51;83.46
80202;BME280;69521;54.454;9.928;2024-02-04T11:11:43;101030.84;;;6.46;82.63
80202;BME280;69521;54.454;9.928;2024-02-04T11:14:11;101024.97;;;6.41;82.73
80202;BME280;69521;54.454;9.928;2024-02-04T11:17:02;101029.34;;;6.42;82.42
80202;BME280;69521;54.454;9.928;2024-02-04T11:25:03;101018.78;;;6.40;82.30
80202;BME280;69521;54.454;9.928;2024-02-04T11:27:39;101018.78;;;6.40;82.22
80202;BME280;69521;54.454;9.928;2024-02-04T11:30:05;101016.63;;;6.45;82.77
80202;BME280;69521;54.454;9.928;2024-02-04T11:32:30;101016.41;;;6.48;82.09
80202;BME280;69521;54.454;9.928;2024-02-04T11:34:56;101004.31;;;6.55;81.44
80202;BME280;69521;54.454;9.928;2024-02-04T11:37:26;101021.41;;;6.65;81.55
80202;BME280;69521;54.454;9.928;2024-02-04T11:39:53;101015.72;;;6.70;81.59
80202;BME280;69521;54.454;9.928;2024-02-04T11:42:19;101015.03;;;6.79;81.12
80202;BME280;69521;54.454;9.928;2024-02-04T11:44:46;101017.72;;;6.79;81.05
80202;BME280;69521;54.454;9.928;2024-02-04T11:47:11;101012.47;;;6.78;82.23
80202;BME280;69521;54.454;9.928;2024-02-04T11:49:53;101019.03;;;6.74;80.86
80202;BME280;69521;54.454;9.928;2024-02-04T11:52:18;101021.91;;;6.70;81.55
80202;BME280;69521;54.454;9.928;2024-02-04T11:54:44;101033.69;;;6.68;82.34
80202;BME280;69521;54.454;9.928;2024-02-04T11:57:10;101029.84;;;6.59;82.75
80202;BME280;69521;54.454;9.928;2024-02-04T11:59:36;101026.00;;;6.63;81.93
80202;BME280;69521;54.454;9.928;2024-02-04T12:02:05;101013.72;;;6.61;82.96
80202;BME280;69521;54.454;9.928;2024-02-04T12:04:31;101019.03;;;6.74;81.29
80202;BME280;69521;54.454;9.928;2024-02-04T12:06:58;101004.38;;;6.66;82.43
80202;BME280;69521;54.454;9.928;2024-02-04T12:09:24;101017.22;;;6.61;82.91
80202;BME280;69521;54.454;9.928;2024-02-04T12:11:49;101016.59;;;6.58;83.27
80202;BME280;69521;54.454;9.928;2024-02-04T12:14:15;101013.28;;;6.54;82.89
80202;BME280;69521;54.454;9.928;2024-02-04T12:16:41;101009.53;;;6.57;83.00
80202;BME280;69521;54.454;9.928;2024-02-04T12:19:07;101015.97;;;6.54;82.88
80202;BME280;69521;54.454;9.928;2024-02-04T12:21:33;101000.56;;;6.58;83.39
80202;BME280;69521;54.454;9.928;2024-02-04T12:23:59;101006.97;;;6.55;82.76
80202;BME280;69521;54.454;9.928;2024-02-04T12:26:25;101003.75;;;6.63;82.69
80202;BME280;69521;54.454;9.928;2024-02-04T12:28:50;100995.84;;;6.61;81.96
80202;BME280;69521;54.454;9.928;2024-02-04T12:31:20;100998.53;;;6.61;82.52
80202;BME280;69521;54.454;9.928;2024-02-04T12:33:59;101015.94;;;6.67;82.52
80202;BME280;69521;54.454;9.928;2024-02-04T12:36:30;100996.81;;;6.60;83.35
80202;BME280;69521;54.454;9.928;2024-02-04T12:38:57;101010.81;;;6.64;83.16
80202;BME280;69521;54.454;9.928;2024-02-04T12:41:24;101015.31;;;6.63;82.78
80202;BME280;69521;54.454;9.928;2024-02-04T12:46:16;101001.94;;;6.63;82.24
80202;BME280;69521;54.454;9.928;2024-02-04T12:48:41;100996.69;;;6.62;82.24
80202;BME280;69521;54.454;9.928;2024-02-04T12:51:07;100995.00;;;6.61;82.74
80202;BME280;69521;54.454;9.928;2024-02-04T12:53:32;101006.31;;;6.64;81.97
80202;BME280;69521;54.454;9.928;2024-02-04T12:55:58;101000.75;;;6.67;81.84
80202;BME280;69521;54.454;9.928;2024-02-04T12:58:25;101008.31;;;6.74;82.82
80202;BME280;69521;54.454;9.928;2024-02-04T13:00:59;100999.56;;;6.71;82.74
80202;BME280;69521;54.454;9.928;2024-02-04T13:03:25;100989.16;;;6.80;82.26
80202;BME280;69521;54.454;9.928;2024-02-04T13:05:51;101000.88;;;6.66;83.11
80202;BME280;69521;54.454;9.928;2024-02-04T13:08:18;101001.50;;;6.69;82.92
80202;BME280;69521;54.454;9.928;2024-02-04T13:10:53;101001.19;;;6.61;82.95
80202;BME280;69521;54.454;9.928;2024-02-04T13:13:20;100996.81;;;6.60;82.93
80202;BME280;69521;54.454;9.928;2024-02-04T13:15:45;100988.47;;;6.65;83.39
80202;BME280;69521;54.454;9.928;2024-02-04T13:18:12;101001.59;;;6.68;83.33
80202;BME280;69521;54.454;9.928;2024-02-04T13:20:40;100993.69;;;6.66;83.66
80202;BME280;69521;54.454;9.928;2024-02-04T13:23:07;100986.19;;;6.71;84.19
80202;BME280;69521;54.454;9.928;2024-02-04T13:25:33;100994.56;;;6.91;82.57
80202;BME280;69521;54.454;9.928;2024-02-04T13:27:58;100983.13;;;6.65;83.09
80202;BME280;69521;54.454;9.928;2024-02-04T13:30:24;100999.03;;;6.66;83.74
80202;BME280;69521;54.454;9.928;2024-02-04T13:32:50;100991.25;;;6.63;83.41
80202;BME280;69521;54.454;9.928;2024-02-04T13:35:16;100993.19;;;6.61;83.66
80202;BME280;69521;54.454;9.928;2024-02-04T13:37:43;100991.47;;;6.60;83.80
80202;BME280;69521;54.454;9.928;2024-02-04T13:40:16;100993.28;;;6.60;83.37
80202;BME280;69521;54.454;9.928;2024-02-04T13:42:42;100991.16;;;6.52;83.52
80202;BME280;69521;54.454;9.928;2024-02-04T13:45:07;100992.66;;;6.56;84.21
80202;BME280;69521;54.454;9.928;2024-02-04T13:47:34;101006.69;;;6.47;83.85
80202;BME280;69521;54.454;9.928;2024-02-04T13:49:59;101002.31;;;6.46;84.55
80202;BME280;69521;54.454;9.928;2024-02-04T13:52:25;100995.38;;;6.44;85.00
80202;BME280;69521;54.454;9.928;2024-02-04T13:54:50;100984.56;;;6.45;85.07
80202;BME280;69521;54.454;9.928;2024-02-04T13:57:15;100974.31;;;6.39;84.26
80202;BME280;69521;54.454;9.928;2024-02-04T13:59:41;100997.41;;;6.40;84.71
80202;BME280;69521;54.454;9.928;2024-02-04T14:02:07;100984.88;;;6.41;84.84
80202;BME280;69521;54.454;9.928;2024-02-04T14:04:34;100989.72;;;6.35;85.93
80202;BME280;69521;54.454;9.928;2024-02-04T14:07:00;100976.47;;;6.34;86.00
80202;BME280;69521;54.454;9.928;2024-02-04T14:09:26;100984.59;;;6.32;85.57
80202;BME280;69521;54.454;9.928;2024-02-04T14:11:51;100988.56;;;6.27;85.95
80202;BME280;69521;54.454;9.928;2024-02-04T14:14:19;100989.28;;;6.29;85.75
80202;BME280;69521;54.454;9.928;2024-02-04T14:16:45;100984.38;;;6.23;86.99
80202;BME280;69521;54.454;9.928;2024-02-04T14:19:10;100964.53;;;6.14;87.86
80202;BME280;69521;54.454;9.928;2024-02-04T14:21:39;100976.81;;;6.17;87.57
80202;BME280;69521;54.454;9.928;2024-02-04T14:24:05;100971.38;;;6.18;88.82
80202;BME280;69521;54.454;9.928;2024-02-04T14:26:31;100967.53;;;6.10;88.37
80202;BME280;69521;54.454;9.928;2024-02-04T14:28:56;100972.19;;;6.06;88.86
80202;BME280;69521;54.454;9.928;2024-02-04T14:31:21;100965.72;;;6.10;89.15
80202;BME280;69521;54.454;9.928;2024-02-04T14:33:47;100965.03;;;6.06;89.16
80202;BME280;69521;54.454;9.928;2024-02-04T14:36:13;100972.13;;;6.07;88.91
80202;BME280;69521;54.454;9.928;2024-02-04T14:38:38;100951.06;;;6.03;88.79
80202;BME280;69521;54.454;9.928;2024-02-04T14:41:04;100974.00;;;6.05;89.61
80202;BME280;69521;54.454;9.928;2024-02-04T14:43:29;100972.84;;;5.97;90.34
80202;BME280;69521;54.454;9.928;2024-02-04T14:45:55;100951.50;;;5.97;90.64
80202;BME280;69521;54.454;9.928;2024-02-04T14:48:20;100973.28;;;5.91;90.91
80202;BME280;69521;54.454;9.928;2024-02-04T14:50:45;100969.19;;;5.85;91.24
80202;BME280;69521;54.454;9.928;2024-02-04T14:53:11;100960.53;;;5.82;91.92
80202;BME280;69521;54.454;9.928;2024-02-04T14:55:36;100960.00;;;5.76;92.52
80202;BME280;69521;54.454;9.928;2024-02-04T14:58:01;100965.78;;;5.70;92.59
80202;BME280;69521;54.454;9.928;2024-02-04T15:00:27;100957.88;;;5.69;92.62
80202;BME280;69521;54.454;9.928;2024-02-04T15:02:55;100961.72;;;5.65;93.12
80202;BME280;69521;54.454;9.928;2024-02-04T15:05:21;100952.97;;;5.63;93.37
80202;BME280;69521;54.454;9.928;2024-02-04T15:07:47;100944.84;;;5.64;93.21
80202;BME280;69521;54.454;9.928;2024-02-04T15:10:13;100950.41;;;5.61;93.31
80202;BME280;69521;54.454;9.928;2024-02-04T15:12:39;100946.75;;;5.62;92.93
80202;BME280;69521;54.454;9.928;2024-02-04T15:15:05;100944.00;;;5.64;93.42
80202;BME280;69521;54.454;9.928;2024-02-04T15:17:32;100950.19;;;5.64;93.29
80202;BME280;69521;54.454;9.928;2024-02-04T15:19:58;100944.84;;;5.64;93.94
80202;BME280;69521;54.454;9.928;2024-02-04T15:22:24;100942.28;;;5.63;93.94
80202;BME280;69521;54.454;9.928;2024-02-04T15:24:50;100952.22;;;5.61;94.10
80202;BME280;69521;54.454;9.928;2024-02-04T15:27:17;100938.13;;;5.59;93.87
80202;BME280;69521;54.454;9.928;2024-02-04T15:29:44;100942.81;;;5.55;94.66
80202;BME280;69521;54.454;9.928;2024-02-04T15:32:11;100953.28;;;5.58;94.43
80202;BME280;69521;54.454;9.928;2024-02-04T15:34:37;100947.19;;;5.56;94.62
80202;BME280;69521;54.454;9.928;2024-02-04T15:37:03;100941.22;;;5.53;94.95
80202;BME280;69521;54.454;9.928;2024-02-04T15:39:29;100942.06;;;5.53;94.76
80202;BME280;69521;54.454;9.928;2024-02-04T15:41:54;100943.97;;;5.51;94.49
80202;BME280;69521;54.454;9.928;2024-02-04T15:44:19;100946.53;;;5.53;94.74
80202;BME280;69521;54.454;9.928;2024-02-04T15:46:47;100943.66;;;5.56;94.61
80202;BME280;69521;54.454;9.928;2024-02-04T15:49:14;100944.72;;;5.53;94.62
80202;BME280;69521;54.454;9.928;2024-02-04T15:51:43;100932.25;;;5.54;95.17
80202;BME280;69521;54.454;9.928;2024-02-04T15:54:09;100939.28;;;5.55;94.21
80202;BME280;69521;54.454;9.928;2024-02-04T15:56:41;100935.44;;;5.59;94.54
80202;BME280;69521;54.454;9.928;2024-02-04T15:59:08;100931.19;;;5.56;94.69
80202;BME280;69521;54.454;9.928;2024-02-04T16:01:36;100931.59;;;5.50;94.55
80202;BME280;69521;54.454;9.928;2024-02-04T16:04:06;100923.28;;;5.55;94.84
80202;BME280;69521;54.454;9.928;2024-02-04T16:06:32;100922.63;;;5.51;93.96
80202;BME280;69521;54.454;9.928;2024-02-04T16:08:59;100915.50;;;5.52;93.93
80202;BME280;69521;54.454;9.928;2024-02-04T16:11:25;100918.06;;;5.53;94.42
80202;BME280;69521;54.454;9.928;2024-02-04T16:13:52;100908.13;;;5.55;93.87
80202;BME280;69521;54.454;9.928;2024-02-04T16:16:20;100900.66;;;5.60;93.99
80202;BME280;69521;54.454;9.928;2024-02-04T16:18:47;100905.34;;;5.57;93.56
80202;BME280;69521;54.454;9.928;2024-02-04T16:21:13;100908.00;;;5.57;93.63
80202;BME280;69521;54.454;9.928;2024-02-04T16:23:38;100894.88;;;5.54;94.18
80202;BME280;69521;54.454;9.928;2024-02-04T16:26:04;100906.31;;;5.56;94.20
80202;BME280;69521;54.454;9.928;2024-02-04T16:28:29;100891.91;;;5.58;93.47
80202;BME280;69521;54.454;9.928;2024-02-04T16:30:55;100895.41;;;5.59;93.90
80202;BME280;69521;54.454;9.928;2024-02-04T16:33:20;100895.31;;;5.73;93.58
80202;BME280;69521;54.454;9.928;2024-02-04T16:35:47;100895.41;;;5.59;94.21
80202;BME280;69521;54.454;9.928;2024-02-04T16:38:12;100894.03;;;5.53;94.36
80202;BME280;69521;54.454;9.928;2024-02-04T16:40:37;100898.63;;;5.51;94.53
80202;BME280;69521;54.454;9.928;2024-02-04T16:43:05;100903.75;;;5.54;94.16
80202;BME280;69521;54.454;9.928;2024-02-04T16:45:30;100904.28;;;5.47;94.54
80202;BME280;69521;54.454;9.928;2024-02-04T16:47:56;100899.59;;;5.50;94.66
80202;BME280;69521;54.454;9.928;2024-02-04T16:50:21;100899.59;;;5.50;94.62
80202;BME280;69521;54.454;9.928;2024-02-04T16:52:48;100901.19;;;5.53;94.74
80202;BME280;69521;54.454;9.928;2024-02-04T16:55:13;100895.97;;;5.51;94.62
80202;BME280;69521;54.454;9.928;2024-02-04T16:57:39;100903.09;;;5.51;95.33
80202;BME280;69521;54.454;9.928;2024-02-04T17:00:07;100903.97;;;5.51;95.04
80202;BME280;69521;54.454;9.928;2024-02-04T17:02:33;100889.97;;;5.48;95.17
80202;BME280;69521;54.454;9.928;2024-02-04T17:05:00;100882.19;;;5.44;95.74
80202;BME280;69521;54.454;9.928;2024-02-04T17:07:26;100902.56;;;5.46;95.28
80202;BME280;69521;54.454;9.928;2024-02-04T17:09:51;100897.44;;;5.42;95.25
80202;BME280;69521;54.454;9.928;2024-02-04T17:12:18;100888.47;;;5.43;95.47
80202;BME280;69521;54.454;9.928;2024-02-04T17:14:44;100892.00;;;5.44;95.25
80202;BME280;69521;54.454;9.928;2024-02-04T17:17:14;100873.53;;;5.41;95.60
80202;BME280;69521;54.454;9.928;2024-02-04T17:22:37;100885.06;;;5.41;95.42
80202;BME280;69521;54.454;9.928;2024-02-04T17:25:04;100865.66;;;5.39;95.56
80202;BME280;69521;54.454;9.928;2024-02-04T17:30:04;100867.34;;;5.40;95.07
80202;BME280;69521;54.454;9.928;2024-02-04T17:32:32;100878.88;;;5.41;95.12
80202;BME280;69521;54.454;9.928;2024-02-04T17:34:59;100865.53;;;5.41;95.11
80202;BME280;69521;54.454;9.928;2024-02-04T17:37:25;100865.53;;;5.41;94.60
80202;BME280;69521;54.454;9.928;2024-02-04T17:39:51;100873.13;;;5.47;94.58
80202;BME280;69521;54.454;9.928;2024-02-04T17:42:16;100865.44;;;5.42;94.81
80202;BME280;69521;54.454;9.928;2024-02-04T17:44:42;100862.75;;;5.42;94.56
80202;BME280;69521;54.454;9.928;2024-02-04T17:47:07;100880.47;;;5.43;94.71
80202;BME280;69521;54.454;9.928;2024-02-04T17:49:33;100885.28;;;5.38;94.63
80202;BME280;69521;54.454;9.928;2024-02-04T17:51:58;100889.75;;;5.38;95.33
80202;BME280;69521;54.454;9.928;2024-02-04T17:54:23;100879.00;;;5.39;95.27
80202;BME280;69521;54.454;9.928;2024-02-04T17:56:53;100877.16;;;5.40;95.41
80202;BME280;69521;54.454;9.928;2024-02-04T17:59:21;100871.63;;;5.43;94.91
80202;BME280;69521;54.454;9.928;2024-02-04T18:01:46;100865.53;;;5.41;95.29
80202;BME280;69521;54.454;9.928;2024-02-04T18:04:13;100869.50;;;5.35;95.35
80202;BME280;69521;54.454;9.928;2024-02-04T18:06:38;100862.97;;;5.39;95.32
80202;BME280;69521;54.454;9.928;2024-02-04T18:09:04;100859.88;;;5.46;95.32
80202;BME280;69521;54.454;9.928;2024-02-04T18:11:33;100852.19;;;5.54;95.33
80202;BME280;69521;54.454;9.928;2024-02-04T18:13:59;100849.53;;;5.54;95.45
80202;BME280;69521;54.454;9.928;2024-02-04T18:16:27;100841.75;;;5.51;95.37
80202;BME280;69521;54.454;9.928;2024-02-04T18:18:52;100844.09;;;5.55;95.49
80202;BME280;69521;54.454;9.928;2024-02-04T18:21:21;100840.50;;;6.05;95.00
80202;BME280;69521;54.454;9.928;2024-02-04T18:23:47;100833.16;;;5.84;93.16
80202;BME280;69521;54.454;9.928;2024-02-04T18:26:23;100830.84;;;5.66;94.47
80202;BME280;69521;54.454;9.928;2024-02-04T18:28:50;100836.38;;;5.63;94.95
80202;BME280;69521;54.454;9.928;2024-02-04T18:31:16;100835.22;;;5.67;94.70
80202;BME280;69521;54.454;9.928;2024-02-04T18:33:41;100826.69;;;5.62;94.69
80202;BME280;69521;54.454;9.928;2024-02-04T18:36:07;100830.19;;;5.63;94.86
80202;BME280;69521;54.454;9.928;2024-02-04T18:38:33;100816.75;;;5.64;94.56
80202;BME280;69521;54.454;9.928;2024-02-04T18:40:59;100821.00;;;5.67;94.96
80202;BME280;69521;54.454;9.928;2024-02-04T18:43:24;100805.75;;;5.69;95.02
80202;BME280;69521;54.454;9.928;2024-02-04T18:45:49;100796.03;;;5.68;94.72
80202;BME280;69521;54.454;9.928;2024-02-04T18:48:17;100798.91;;;5.65;94.82
80202;BME280;69521;54.454;9.928;2024-02-04T18:50:42;100790.91;;;5.65;95.11
80202;BME280;69521;54.454;9.928;2024-02-04T18:53:08;100793.06;;;5.60;95.33
80202;BME280;69521;54.454;9.928;2024-02-04T18:55:33;100786.44;;;5.65;94.82
80202;BME280;69521;54.454;9.928;2024-02-04T18:57:59;100787.50;;;5.63;94.41
80202;BME280;69521;54.454;9.928;2024-02-04T19:00:24;100771.94;;;5.57;95.04
80202;BME280;69521;54.454;9.928;2024-02-04T19:02:49;100783.00;;;5.63;94.82
80202;BME280;69521;54.454;9.928;2024-02-04T19:05:15;100776.31;;;5.58;94.77
80202;BME280;69521;54.454;9.928;2024-02-04T19:07:40;100785.56;;;5.65;94.96
80202;BME280;69521;54.454;9.928;2024-02-04T19:10:06;100774.69;;;5.68;94.37
80202;BME280;69521;54.454;9.928;2024-02-04T19:12:34;100763.78;;;5.71;94.18
80202;BME280;69521;54.454;9.928;2024-02-04T19:14:59;100752.03;;;5.73;94.43
80202;BME280;69521;54.454;9.928;2024-02-04T19:17:28;100758.72;;;5.79;94.43
80202;BME280;69521;54.454;9.928;2024-02-04T19:19:53;100756.59;;;5.84;94.05
80202;BME280;69521;54.454;9.928;2024-02-04T19:22:19;100756.47;;;5.86;93.63
80202;BME280;69521;54.454;9.928;2024-02-04T19:24:44;100750.28;;;5.85;94.32
80202;BME280;69521;54.454;9.928;2024-02-04T19:27:09;100748.47;;;5.86;93.91
80202;BME280;69521;54.454;9.928;2024-02-04T19:29:35;100747.38;;;5.88;93.96
80202;BME280;69521;54.454;9.928;2024-02-04T19:32:00;100744.53;;;5.91;93.95
80202;BME280;69521;54.454;9.928;2024-02-04T19:34:25;100741.97;;;5.90;93.95
80202;BME280;69521;54.454;9.928;2024-02-04T19:36:51;100746.00;;;5.95;93.64
80202;BME280;69521;54.454;9.928;2024-02-04T19:39:16;100748.56;;;5.97;93.51
80202;BME280;69521;54.454;9.928;2024-02-04T19:41:42;100734.56;;;5.93;93.66
80202;BME280;69521;54.454;9.928;2024-02-04T19:44:07;100735.53;;;5.92;94.05
80202;BME280;69521;54.454;9.928;2024-02-04T19:46:33;100728.28;;;5.94;94.72
80202;BME280;69521;54.454;9.928;2024-02-04T19:48:58;100728.28;;;5.94;94.91
80202;BME280;69521;54.454;9.928;2024-02-04T19:51:24;100720.03;;;5.97;95.77
80202;BME280;69521;54.454;9.928;2024-02-04T19:53:49;100723.44;;;5.99;96.06
80202;BME280;69521;54.454;9.928;2024-02-04T19:56:14;100708.84;;;5.92;96.05
80202;BME280;69521;54.454;9.928;2024-02-04T19:58:40;100713.34;;;5.92;96.63
80202;BME280;69521;54.454;9.928;2024-02-04T20:01:06;100722.41;;;5.89;96.95
80202;BME280;69521;54.454;9.928;2024-02-04T20:03:32;100722.31;;;5.91;97.33
80202;BME280;69521;54.454;9.928;2024-02-04T20:05:58;100715.03;;;5.93;96.59
80202;BME280;69521;54.454;9.928;2024-02-04T20:08:24;100720.59;;;5.90;97.52
80202;BME280;69521;54.454;9.928;2024-02-04T20:10:49;100719.75;;;5.89;97.86
80202;BME280;69521;54.454;9.928;2024-02-04T20:13:15;100717.81;;;5.91;97.89
80202;BME280;69521;54.454;9.928;2024-02-04T20:15:40;100718.69;;;5.92;97.65
80202;BME280;69521;54.454;9.928;2024-02-04T20:18:06;100720.88;;;5.98;97.46
80202;BME280;69521;54.454;9.928;2024-02-04T20:20:32;100717.38;;;5.97;97.84
80202;BME280;69521;54.454;9.928;2024-02-04T20:22:57;100715.88;;;5.93;98.08
80202;BME280;69521;54.454;9.928;2024-02-04T20:25:23;100713.53;;;5.89;98.07
80202;BME280;69521;54.454;9.928;2024-02-04T20:27:52;100709.69;;;5.93;98.72
80202;BME280;69521;54.454;9.928;2024-02-04T20:30:17;100713.09;;;5.95;98.65
80202;BME280;69521;54.454;9.928;2024-02-04T20:32:43;100708.63;;;5.95;98.17
80202;BME280;69521;54.454;9.928;2024-02-04T20:35:08;100691.84;;;5.93;98.57
80202;BME280;69521;54.454;9.928;2024-02-04T20:37:34;100691.13;;;5.91;98.13
80202;BME280;69521;54.454;9.928;2024-02-04T20:39:59;100690.47;;;5.88;98.02
80202;BME280;69521;54.454;9.928;2024-02-04T20:42:25;100679.72;;;5.89;98.46
80202;BME280;69521;54.454;9.928;2024-02-04T20:44:50;100676.38;;;5.86;98.51
80202;BME280;69521;54.454;9.928;2024-02-04T20:47:15;100680.88;;;5.85;99.20
80202;BME280;69521;54.454;9.928;2024-02-04T20:49:42;100671.28;;;5.83;99.22
80202;BME280;69521;54.454;9.928;2024-02-04T20:52:07;100673.16;;;5.93;99.16
80202;BME280;69521;54.454;9.928;2024-02-04T20:54:32;100671.47;;;5.92;98.84